• Join FlightAware (Why Join?)
  • Login
  • US Flag 
06:02AM EST


 

Airport Tracker/Info


-or-


 

Live Flight TrackerFlight Track Log ✈ UCA3596 ✈ 15-Jan-2014 ✈ KIAD - KBGM

Flight Track Log - Related Links

Times and Time Zones

All times are in EST time to prevent confusion due to time zone crossing. See the UCA3596 flight status page for this flight to view local times or setup timezone preferences in your user account.

Time Position Orientation Groundspeed Altitude Reporting Facility
EST Latitude Longitude Course Direction KTS MPH feet Rate Location/Type
01:43PM 41.0988 -76.5007 19° North  Level Estimated
01:44PM 41.1847 -76.4610 19° North  Level Estimated
01:45PM 41.2706 -76.4213 19° North  Level Estimated
01:46PM 41.3564 -76.3814 19° North  Level Estimated
01:47PM 41.4423 -76.3414 19° North  Level Estimated
01:48PM 41.5281 -76.3014 19° North  Level Estimated
01:49PM 41.6139 -76.2612 19° North  Level Estimated
01:50PM 41.6997 -76.2209 19° North  Level Estimated
01:51PM 41.7855 -76.1805 19° North  Level Estimated
01:52PM 41.8713 -76.1400 19° North  Level Estimated
01:53PM 41.9571 -76.0993 19° North  Level Estimated
01:54PM 42.0197 -76.0696 19° North  Level Estimated
01:55PM 42.0824 -76.0398 19° North  Level Estimated
01:56PM 42.1450 -76.0099 19° North  Level Estimated
01:57PM 42.2076 -75.9800 19° North  Level Estimated
01:58PM 42.2084 -75.9796 20° North  Level Estimated
01:59PM 42.2084 -75.9796 35° Northeast  Level Estimated
02:00PM 42.2084 -75.9796 35° Northeast  Level Estimated
02:01PM 42.2084 -75.9796 35° Northeast  Level Estimated
02:02PM 42.2084 -75.9796 35° Northeast  Level Estimated
02:03PM 42.2084 -75.9796 35° Northeast  Level Estimated
02:04PM 42.2084 -75.9796 35° Northeast  Level Estimated
02:05PM 42.2084 -75.9796 35° Northeast  Level Estimated
02:06PM 42.2084 -75.9796 35° Northeast  Level Estimated
02:07PM 42.2084 -75.9796 35° Northeast  Level Estimated
02:08PM 42.2084 -75.9796 35° Northeast  Level Estimated
02:09PM 42.2084 -75.9796 35° Northeast  Level Estimated
02:10PM 42.2084 -75.9796 35° Northeast  Level Estimated
02:11PM 42.2084 -75.9796 35° Northeast  Level Estimated
02:12PM 42.2084 -75.9796 35° Northeast  Level Estimated